Time;durP1;ratioP1;P1;durP2;ratioP2;P2;SDS_P1;SDS_P2;PMS_P1;PMS_P2;Temp;Humidity;BMP_temperature;BMP_pressure;BME280_temperature;BME280_humidity;BME280_pressure;Samples;Min_cycle;Max_cycle;Signal;HPM_P1;HPM_P2
2023/10/02 00:06:16;;;;;;;17.75;9.48;;;;;;;21.43;100.00;99917.13;31452271;28;20136;-78
2023/10/02 00:21:19;;;;;;;12.63;9.07;;;;;;;21.08;100.00;99909.19;31444563;28;20102;-78
2023/10/02 00:36:22;;;;;;;14.48;8.25;;;;;;;21.13;100.00;99910.47;31463640;28;20052;-77
2023/10/02 00:51:26;;;;;;;17.17;7.30;;;;;;;20.97;100.00;99913.91;31460883;28;20053;-77
2023/10/02 01:06:29;;;;;;;9.80;6.38;;;;;;;20.77;100.00;99923.84;31464075;28;20502;-77
2023/10/02 01:21:32;;;;;;;9.93;5.53;;;;;;;20.54;100.00;99927.69;31431843;28;20044;-78
2023/10/02 01:36:35;;;;;;;10.88;5.53;;;;;;;20.46;100.00;99926.63;31467760;28;20094;-77
2023/10/02 01:51:41;;;;;;;8.23;4.63;;;;;;;20.35;100.00;99949.31;31487218;28;20081;-77
2023/10/02 02:06:56;;;;;;;6.85;3.88;;;;;;;20.43;100.00;99949.66;31500279;28;20508;-77
2023/10/02 02:21:58;;;;;;;8.47;4.53;;;;;;;20.28;100.00;99955.28;31485982;28;20512;-78
2023/10/02 02:37:00;;;;;;;6.40;3.30;;;;;;;20.29;100.00;99958.81;31452900;28;20139;-78
2023/10/02 02:52:02;;;;;;;8.43;3.50;;;;;;;20.11;100.00;99968.16;31480173;28;20098;-78
2023/10/02 03:07:18;;;;;;;8.70;3.07;;;;;;;20.03;100.00;99961.56;31452357;28;20060;-76
2023/10/02 03:22:20;;;;;;;8.67;3.27;;;;;;;19.87;100.00;99965.66;31470101;28;20080;-77
2023/10/02 03:37:24;;;;;;;6.23;2.93;;;;;;;19.73;100.00;99967.28;31468496;28;20150;-78
2023/10/02 03:52:33;;;;;;;5.97;3.07;;;;;;;19.63;100.00;99970.66;31488929;28;20063;-77
2023/10/02 04:07:36;;;;;;;6.80;2.87;;;;;;;19.87;100.00;99993.19;31449292;28;20071;-78
2023/10/02 04:22:39;;;;;;;6.37;2.80;;;;;;;19.93;100.00;100007.81;31488927;28;20049;-77
2023/10/02 04:37:48;;;;;;;25.07;3.30;;;;;;;19.95;100.00;100032.88;31455323;28;20056;-77
2023/10/02 04:52:53;;;;;;;112.87;8.00;;;;;;;20.04;99.77;100051.25;31467973;28;20415;-77
2023/10/02 05:07:56;;;;;;;5.32;2.67;;;;;;;20.68;93.83;100074.97;31457963;28;20056;-77
2023/10/02 05:22:58;;;;;;;7.20;2.90;;;;;;;21.46;88.20;100094.13;31476360;28;20445;-78
2023/10/02 05:38:02;;;;;;;13.98;3.30;;;;;;;22.59;80.63;100111.41;31448422;28;20041;-78
2023/10/02 05:53:04;;;;;;;13.53;3.40;;;;;;;24.06;72.54;100130.88;31456779;28;20052;-79
2023/10/02 06:08:10;;;;;;;10.60;3.33;;;;;;;25.30;66.46;100131.59;31470010;28;20061;-75
2023/10/02 06:23:22;;;;;;;6.55;3.28;;;;;;;25.22;65.39;100147.34;31465301;28;20481;-75
2023/10/02 06:38:25;;;;;;;7.95;2.80;;;;;;;23.91;67.17;100163.69;31452732;28;20404;-77
2023/10/02 06:53:28;;;;;;;6.43;2.80;;;;;;;23.74;67.74;100176.84;31479331;28;20520;-76
2023/10/02 07:08:32;;;;;;;6.35;2.70;;;;;;;24.00;66.24;100182.06;31461675;28;20085;-75
2023/10/02 07:23:37;;;;;;;10.48;3.10;;;;;;;24.77;64.06;100203.19;31454196;28;20172;-76
2023/10/02 07:38:47;;;;;;;8.45;3.78;;;;;;;25.96;60.51;100201.72;31448357;28;20051;-78
2023/10/02 07:53:50;;;;;;;9.73;4.15;;;;;;;25.36;60.40;100207.31;31476225;28;20131;-78
2023/10/02 08:09:47;;;;;;;15.73;7.57;;;;;;;24.92;60.40;100213.94;31449562;28;20139;-75
2023/10/02 08:24:20;;;;;;;9.30;3.30;;;;;;;26.04;57.87;100219.28;31461905;28;20048;-79
2023/10/02 08:39:23;;;;;;;21.85;14.45;;;;;;;25.13;58.56;100228.97;31487982;28;20051;-78
2023/10/02 08:54:27;;;;;;;4.83;2.70;;;;;;;26.09;56.24;100232.41;31466029;28;20139;-78
2023/10/02 09:24:40;;;;;;;8.30;2.20;;;;;;;28.17;49.68;100223.16;31479422;28;20416;-82
2023/10/02 09:39:43;;;;;;;20.63;3.42;;;;;;;28.93;45.15;100239.38;31467194;28;20040;-77
2023/10/02 09:54:51;;;;;;;6.70;1.88;;;;;;;28.32;45.48;100241.44;31481333;28;20040;-75
2023/10/02 10:10:28;;;;;;;9.55;2.47;;;;;;;29.22;42.83;100215.81;31476760;28;20393;-79
2023/10/02 10:25:33;;;;;;;6.97;2.33;;;;;;;30.33;40.63;100214.16;31493799;28;20059;-81
2023/10/02 10:40:46;;;;;;;8.15;2.40;;;;;;;30.48;37.03;100222.59;31502882;28;20113;-82
2023/10/02 10:55:54;;;;;;;11.10;2.40;;;;;;;30.37;36.67;100208.94;31498417;28;20135;-82
2023/10/02 11:11:11;;;;;;;6.93;2.33;;;;;;;30.68;34.10;100202.19;31461275;28;20049;-80
2023/10/02 11:26:21;;;;;;;11.55;2.72;;;;;;;31.53;33.46;100204.50;31499028;28;20063;-81
2023/10/02 11:41:24;;;;;;;8.38;4.38;;;;;;;31.26;33.00;100225.81;31474247;28;20049;-83
2023/10/02 11:56:26;;;;;;;22.70;12.05;;;;;;;31.06;32.71;100223.91;31485899;28;20584;-79
2023/10/02 12:11:32;;;;;;;9.20;3.72;;;;;;;28.16;34.72;100216.06;31464216;28;20056;-81
2023/10/02 12:26:34;;;;;;;9.40;3.45;;;;;;;26.94;35.83;100229.28;31459937;28;20060;-80
2023/10/02 12:41:36;;;;;;;13.27;2.93;;;;;;;26.11;36.60;100240.22;31455835;28;20040;-75
2023/10/02 12:56:39;;;;;;;14.43;4.80;;;;;;;25.79;36.57;100240.03;31441774;28;20094;-74
2023/10/02 13:11:44;;;;;;;5.85;2.72;;;;;;;25.14;38.25;100249.16;31464974;28;20132;-74
2023/10/02 13:26:47;;;;;;;7.90;2.60;;;;;;;25.12;37.76;100255.22;31451784;28;20062;-75
2023/10/02 13:41:49;;;;;;;10.18;3.38;;;;;;;24.79;38.46;100267.28;31470831;28;20140;-74
2023/10/02 13:56:51;;;;;;;10.35;2.70;;;;;;;24.63;38.54;100270.88;31477440;28;20408;-78
2023/10/02 14:11:53;;;;;;;19.30;3.88;;;;;;;24.22;39.19;100289.41;31480543;28;20447;-74
2023/10/02 14:26:56;;;;;;;8.82;3.22;;;;;;;24.12;39.50;100292.44;31471583;28;20102;-80
2023/10/02 14:41:58;;;;;;;8.13;3.95;;;;;;;23.83;40.24;100323.50;31468642;28;20123;-80
2023/10/02 14:57:00;;;;;;;12.95;4.75;;;;;;;23.75;40.28;100334.31;31468888;28;20458;-76
2023/10/02 15:12:02;;;;;;;12.00;3.17;;;;;;;23.29;41.00;100362.44;31455339;28;20102;-79
2023/10/02 15:27:05;;;;;;;9.55;2.92;;;;;;;22.87;41.04;100384.69;31469290;28;20056;-79
2023/10/02 15:42:07;;;;;;;7.30;2.40;;;;;;;22.53;41.41;100403.84;31465130;28;20056;-79
2023/10/02 15:57:09;;;;;;;7.60;2.40;;;;;;;22.47;41.68;100436.25;31479196;28;20065;-79
2023/10/02 16:12:13;;;;;;;10.48;3.50;;;;;;;21.99;42.89;100444.38;31467466;28;20072;-82
2023/10/02 16:27:19;;;;;;;12.87;5.57;;;;;;;21.79;43.38;100462.53;31465017;28;20402;-82
2023/10/02 16:42:21;;;;;;;17.65;4.22;;;;;;;21.53;44.10;100477.56;31465345;28;20055;-78
2023/10/02 16:57:30;;;;;;;30.50;14.50;;;;;;;21.17;44.40;100490.66;31463869;28;20101;-78
2023/10/02 17:12:32;;;;;;;18.85;6.93;;;;;;;20.82;45.88;100509.22;31450773;28;20093;-79
2023/10/02 17:27:35;;;;;;;15.85;6.40;;;;;;;20.54;45.99;100523.34;31453602;28;20495;-79
2023/10/02 17:42:38;;;;;;;20.30;7.85;;;;;;;20.47;46.73;100540.25;31458879;28;20160;-77
2023/10/02 17:57:40;;;;;;;23.65;9.68;;;;;;;20.44;47.09;100543.97;31447201;28;20057;-74
2023/10/02 18:12:43;;;;;;;18.38;8.43;;;;;;;20.47;47.56;100559.56;31476803;28;20082;-72
2023/10/02 18:27:47;;;;;;;19.58;7.30;;;;;;;20.47;47.67;100562.31;31489942;28;20056;-80
2023/10/02 18:42:50;;;;;;;14.15;6.55;;;;;;;20.67;48.42;100570.69;31468648;28;20049;-72
2023/10/02 18:57:52;;;;;;;11.95;6.63;;;;;;;20.72;48.30;100578.31;31456290;28;20128;-70
2023/10/02 19:12:54;;;;;;;20.65;6.47;;;;;;;20.79;48.34;100581.91;31421652;28;20088;-71
2023/10/02 19:27:56;;;;;;;14.80;6.25;;;;;;;20.83;48.44;100587.97;31467168;28;20504;-71
2023/10/02 19:42:58;;;;;;;16.88;6.13;;;;;;;20.77;48.18;100596.94;31457977;28;20397;-71
2023/10/02 19:58:01;;;;;;;13.25;6.00;;;;;;;20.70;48.27;100604.84;31461963;28;20095;-73
2023/10/02 20:13:06;;;;;;;17.55;6.28;;;;;;;20.65;48.49;100622.06;31454809;28;20045;-71
2023/10/02 20:28:09;;;;;;;15.45;5.82;;;;;;;20.36;48.56;100628.25;31440694;28;20080;-71
2023/10/02 20:43:12;;;;;;;19.65;7.20;;;;;;;20.10;49.14;100639.78;31457817;28;20500;-78
2023/10/02 20:58:14;;;;;;;19.98;7.38;;;;;;;19.73;50.11;100649.56;31484000;28;20428;-80
2023/10/02 21:13:16;;;;;;;20.45;8.88;;;;;;;19.38;51.36;100663.75;31458783;28;20105;-80
2023/10/02 21:28:18;;;;;;;19.63;9.73;;;;;;;19.08;51.84;100656.53;31461811;28;20055;-80
2023/10/02 21:43:21;;;;;;;37.87;16.03;;;;;;;18.83;52.93;100676.16;31483740;28;20048;-76
2023/10/02 21:58:24;;;;;;;38.20;14.57;;;;;;;18.57;53.56;100687.47;31483958;28;20064;-79
2023/10/02 22:13:29;;;;;;;27.90;11.97;;;;;;;18.38;54.88;100694.19;31477227;28;20476;-80
2023/10/02 22:28:33;;;;;;;30.93;11.33;;;;;;;18.19;56.18;100703.63;31503838;28;20048;-79
2023/10/02 22:43:35;;;;;;;28.83;11.17;;;;;;;18.01;57.24;100723.56;31512124;28;20052;-79
2023/10/02 22:58:38;;;;;;;26.80;10.20;;;;;;;17.85;57.96;100723.84;31528220;28;20440;-79
2023/10/02 23:13:40;;;;;;;32.27;12.17;;;;;;;17.69;59.46;100727.63;31485881;28;20053;-81
2023/10/02 23:28:42;;;;;;;30.03;11.57;;;;;;;17.47;61.54;100716.66;31502995;28;20525;-79
2023/10/02 23:43:44;;;;;;;32.33;12.13;;;;;;;17.32;62.92;100732.88;31482532;28;20052;-79
2023/10/02 23:58:52;;;;;;;35.30;12.10;;;;;;;17.21;64.05;100743.50;31480529;28;20095;-80
